sensor_id;sensor_type;location;lat;lon;timestamp;noise_LAeq;noise_LA_min;noise_LA_max;noise_LA01;noise_LA95
66335;Laerm;53138;51.496;6.410;2023-03-01T00:00:07;32.68;31.16;34.48;;
66335;Laerm;53138;51.496;6.410;2023-03-01T00:00:18;32.66;30.97;34.36;;
66335;Laerm;53138;51.496;6.410;2023-03-01T00:00:28;32.77;31.16;34.53;;
66335;Laerm;53138;51.496;6.410;2023-03-01T00:00:38;32.84;31.19;34.94;;
66335;Laerm;53138;51.496;6.410;2023-03-01T00:00:48;32.89;31.40;34.93;;
66335;Laerm;53138;51.496;6.410;2023-03-01T00:01:06;32.91;30.77;34.69;;
66335;Laerm;53138;51.496;6.410;2023-03-01T00:01:17;33.01;31.28;35.51;;
66335;Laerm;53138;51.496;6.410;2023-03-01T00:01:29;33.06;31.48;35.16;;
66335;Laerm;53138;51.496;6.410;2023-03-01T00:01:39;33.03;31.23;35.88;;
66335;Laerm;53138;51.496;6.410;2023-03-01T00:01:49;33.00;31.28;34.70;;
66335;Laerm;53138;51.496;6.410;2023-03-01T00:02:00;32.98;31.16;34.84;;
66335;Laerm;53138;51.496;6.410;2023-03-01T00:02:10;32.00;29.92;37.40;;
66335;Laerm;53138;51.496;6.410;2023-03-01T00:02:20;31.36;29.86;36.00;;
66335;Laerm;53138;51.496;6.410;2023-03-01T00:02:31;31.34;29.87;33.49;;
66335;Laerm;53138;51.496;6.410;2023-03-01T00:02:41;31.29;29.53;32.70;;
66335;Laerm;53138;51.496;6.410;2023-03-01T00:02:51;31.59;30.34;33.36;;
66335;Laerm;53138;51.496;6.410;2023-03-01T00:03:01;32.27;30.55;34.42;;
66335;Laerm;53138;51.496;6.410;2023-03-01T00:03:11;32.32;30.45;34.16;;
66335;Laerm;53138;51.496;6.410;2023-03-01T00:03:22;31.79;29.99;34.66;;
66335;Laerm;53138;51.496;6.410;2023-03-01T00:03:32;31.73;30.35;33.74;;
66335;Laerm;53138;51.496;6.410;2023-03-01T00:03:43;36.34;30.34;42.80;;
66335;Laerm;53138;51.496;6.410;2023-03-01T00:03:53;44.33;32.77;52.29;;
66335;Laerm;53138;51.496;6.410;2023-03-01T00:04:04;40.71;35.52;48.15;;
66335;Laerm;53138;51.496;6.410;2023-03-01T00:04:14;35.37;32.81;39.25;;
66335;Laerm;53138;51.496;6.410;2023-03-01T00:04:24;31.69;29.84;35.55;;
66335;Laerm;53138;51.496;6.410;2023-03-01T00:04:35;32.23;30.20;38.44;;
66335;Laerm;53138;51.496;6.410;2023-03-01T00:04:45;31.54;30.07;37.86;;
66335;Laerm;53138;51.496;6.410;2023-03-01T00:04:55;31.34;29.75;33.60;;
66335;Laerm;53138;51.496;6.410;2023-03-01T00:05:06;31.24;29.59;33.79;;
66335;Laerm;53138;51.496;6.410;2023-03-01T00:05:17;31.22;29.83;32.73;;
66335;Laerm;53138;51.496;6.410;2023-03-01T00:05:27;31.23;29.72;32.94;;
66335;Laerm;53138;51.496;6.410;2023-03-01T00:05:43;31.26;29.84;32.66;;
66335;Laerm;53138;51.496;6.410;2023-03-01T00:05:53;31.34;29.87;32.84;;
66335;Laerm;53138;51.496;6.410;2023-03-01T00:06:03;31.29;29.95;32.65;;
66335;Laerm;53138;51.496;6.410;2023-03-01T00:06:14;31.26;30.00;34.62;;
66335;Laerm;53138;51.496;6.410;2023-03-01T00:06:25;31.15;30.03;32.45;;
66335;Laerm;53138;51.496;6.410;2023-03-01T00:06:35;31.25;29.88;32.64;;
66335;Laerm;53138;51.496;6.410;2023-03-01T00:06:45;31.23;29.59;32.36;;
66335;Laerm;53138;51.496;6.410;2023-03-01T00:06:56;31.36;30.02;32.73;;
66335;Laerm;53138;51.496;6.410;2023-03-01T00:07:06;31.58;30.29;33.69;;
66335;Laerm;53138;51.496;6.410;2023-03-01T00:07:16;31.77;30.56;33.02;;
66335;Laerm;53138;51.496;6.410;2023-03-01T00:07:27;31.74;30.01;33.66;;
66335;Laerm;53138;51.496;6.410;2023-03-01T00:07:37;34.72;31.46;38.58;;
66335;Laerm;53138;51.496;6.410;2023-03-01T00:07:47;32.33;30.42;33.93;;
66335;Laerm;53138;51.496;6.410;2023-03-01T00:07:57;31.60;30.13;33.58;;
66335;Laerm;53138;51.496;6.410;2023-03-01T00:08:08;31.57;29.90;33.15;;
66335;Laerm;53138;51.496;6.410;2023-03-01T00:08:18;31.59;30.54;32.64;;
66335;Laerm;53138;51.496;6.410;2023-03-01T00:08:28;32.16;30.36;34.51;;
66335;Laerm;53138;51.496;6.410;2023-03-01T00:08:40;32.04;30.42;33.49;;
66335;Laerm;53138;51.496;6.410;2023-03-01T00:08:50;32.95;30.72;35.65;;
66335;Laerm;53138;51.496;6.410;2023-03-01T00:09:00;34.22;31.33;39.14;;
66335;Laerm;53138;51.496;6.410;2023-03-01T00:09:10;34.53;31.10;41.29;;
66335;Laerm;53138;51.496;6.410;2023-03-01T00:09:21;34.41;31.87;38.07;;
66335;Laerm;53138;51.496;6.410;2023-03-01T00:09:31;35.64;30.61;42.40;;
66335;Laerm;53138;51.496;6.410;2023-03-01T00:09:41;36.50;31.90;46.57;;
66335;Laerm;53138;51.496;6.410;2023-03-01T00:09:51;32.45;29.97;35.05;;
66335;Laerm;53138;51.496;6.410;2023-03-01T00:10:01;32.85;30.99;35.20;;
66335;Laerm;53138;51.496;6.410;2023-03-01T00:10:12;31.98;30.33;33.75;;
66335;Laerm;53138;51.496;6.410;2023-03-01T00:10:22;31.72;30.04;33.01;;
66335;Laerm;53138;51.496;6.410;2023-03-01T00:10:32;31.63;30.19;33.40;;
66335;Laerm;53138;51.496;6.410;2023-03-01T00:10:42;31.42;30.14;32.85;;
66335;Laerm;53138;51.496;6.410;2023-03-01T00:11:26;32.95;29.64;44.51;;
66335;Laerm;53138;51.496;6.410;2023-03-01T00:11:36;31.41;29.95;32.71;;
66335;Laerm;53138;51.496;6.410;2023-03-01T00:11:46;33.53;29.96;50.46;;
66335;Laerm;53138;51.496;6.410;2023-03-01T00:11:57;32.20;30.15;42.64;;
66335;Laerm;53138;51.496;6.410;2023-03-01T00:12:07;31.66;30.15;33.55;;
66335;Laerm;53138;51.496;6.410;2023-03-01T00:12:17;31.74;30.08;33.80;;
66335;Laerm;53138;51.496;6.410;2023-03-01T00:12:27;31.68;29.94;33.21;;
66335;Laerm;53138;51.496;6.410;2023-03-01T00:12:38;31.70;30.05;33.14;;
66335;Laerm;53138;51.496;6.410;2023-03-01T00:12:48;31.55;30.43;32.70;;
66335;Laerm;53138;51.496;6.410;2023-03-01T00:12:58;31.49;30.29;32.77;;
66335;Laerm;53138;51.496;6.410;2023-03-01T00:13:08;31.58;30.56;33.66;;
66335;Laerm;53138;51.496;6.410;2023-03-01T00:13:18;31.52;30.25;33.42;;
66335;Laerm;53138;51.496;6.410;2023-03-01T00:13:29;31.69;30.31;33.04;;
66335;Laerm;53138;51.496;6.410;2023-03-01T00:13:40;31.66;30.51;33.02;;
66335;Laerm;53138;51.496;6.410;2023-03-01T00:13:51;31.51;30.15;32.70;;
66335;Laerm;53138;51.496;6.410;2023-03-01T00:14:02;31.54;30.23;34.22;;
66335;Laerm;53138;51.496;6.410;2023-03-01T00:14:14;31.43;30.09;32.89;;
66335;Laerm;53138;51.496;6.410;2023-03-01T00:14:26;31.40;29.75;32.79;;
66335;Laerm;53138;51.496;6.410;2023-03-01T00:14:36;31.34;29.85;33.27;;
66335;Laerm;53138;51.496;6.410;2023-03-01T00:14:46;31.48;30.25;33.43;;
66335;Laerm;53138;51.496;6.410;2023-03-01T00:14:56;31.52;29.95;33.41;;
66335;Laerm;53138;51.496;6.410;2023-03-01T00:15:07;31.36;29.93;33.38;;
66335;Laerm;53138;51.496;6.410;2023-03-01T00:15:17;31.49;29.98;32.93;;
66335;Laerm;53138;51.496;6.410;2023-03-01T00:15:27;31.46;30.19;32.83;;
66335;Laerm;53138;51.496;6.410;2023-03-01T00:15:38;31.63;30.33;33.35;;
66335;Laerm;53138;51.496;6.410;2023-03-01T00:15:48;31.48;30.08;32.93;;
66335;Laerm;53138;51.496;6.410;2023-03-01T00:15:59;31.78;30.24;34.60;;
66335;Laerm;53138;51.496;6.410;2023-03-01T00:16:12;31.69;30.18;33.20;;
66335;Laerm;53138;51.496;6.410;2023-03-01T00:16:26;31.79;29.80;33.17;;
66335;Laerm;53138;51.496;6.410;2023-03-01T00:16:37;31.58;30.02;35.62;;
66335;Laerm;53138;51.496;6.410;2023-03-01T00:16:50;31.70;30.23;33.64;;
66335;Laerm;53138;51.496;6.410;2023-03-01T00:17:01;31.72;30.46;33.19;;
66335;Laerm;53138;51.496;6.410;2023-03-01T00:17:11;31.82;30.21;33.72;;
66335;Laerm;53138;51.496;6.410;2023-03-01T00:17:22;32.69;30.08;43.46;;
66335;Laerm;53138;51.496;6.410;2023-03-01T00:17:32;31.62;29.95;33.41;;
66335;Laerm;53138;51.496;6.410;2023-03-01T00:17:42;32.06;30.57;33.98;;
66335;Laerm;53138;51.496;6.410;2023-03-01T00:17:52;31.83;30.56;33.62;;
66335;Laerm;53138;51.496;6.410;2023-03-01T00:18:02;31.84;30.56;33.22;;
66335;Laerm;53138;51.496;6.410;2023-03-01T00:18:13;31.66;29.88;33.35;;
66335;Laerm;53138;51.496;6.410;2023-03-01T00:18:23;31.92;30.30;33.94;;
66335;Laerm;53138;51.496;6.410;2023-03-01T00:18:33;31.90;30.26;33.28;;
66335;Laerm;53138;51.496;6.410;2023-03-01T00:18:43;31.77;30.22;33.56;;
66335;Laerm;53138;51.496;6.410;2023-03-01T00:18:54;31.62;30.14;32.68;;
66335;Laerm;53138;51.496;6.410;2023-03-01T00:19:05;31.68;29.98;33.53;;
66335;Laerm;53138;51.496;6.410;2023-03-01T00:19:17;31.76;30.37;33.15;;
66335;Laerm;53138;51.496;6.410;2023-03-01T00:19:28;31.77;30.25;33.10;;
66335;Laerm;53138;51.496;6.410;2023-03-01T00:19:38;31.71;30.12;33.36;;
66335;Laerm;53138;51.496;6.410;2023-03-01T00:19:48;31.81;30.27;35.49;;
66335;Laerm;53138;51.496;6.410;2023-03-01T00:19:58;31.84;30.28;35.18;;
66335;Laerm;53138;51.496;6.410;2023-03-01T00:20:09;31.55;30.25;33.25;;
66335;Laerm;53138;51.496;6.410;2023-03-01T00:20:20;31.61;30.09;32.97;;
66335;Laerm;53138;51.496;6.410;2023-03-01T00:20:30;31.53;30.26;33.08;;
66335;Laerm;53138;51.496;6.410;2023-03-01T00:20:40;31.53;30.30;32.75;;
66335;Laerm;53138;51.496;6.410;2023-03-01T00:20:54;31.56;30.13;32.79;;
66335;Laerm;53138;51.496;6.410;2023-03-01T00:21:04;31.51;30.15;33.67;;
66335;Laerm;53138;51.496;6.410;2023-03-01T00:21:15;31.44;29.76;33.24;;
66335;Laerm;53138;51.496;6.410;2023-03-01T00:21:25;32.01;30.33;34.44;;
66335;Laerm;53138;51.496;6.410;2023-03-01T00:21:36;34.46;31.50;40.37;;
66335;Laerm;53138;51.496;6.410;2023-03-01T00:21:46;34.36;31.98;37.24;;
66335;Laerm;53138;51.496;6.410;2023-03-01T00:21:56;34.28;31.15;41.29;;
66335;Laerm;53138;51.496;6.410;2023-03-01T00:22:06;33.05;31.17;36.33;;
66335;Laerm;53138;51.496;6.410;2023-03-01T00:22:17;32.90;30.94;36.03;;
66335;Laerm;53138;51.496;6.410;2023-03-01T00:22:27;32.21;30.58;34.42;;
66335;Laerm;53138;51.496;6.410;2023-03-01T00:22:38;31.88;30.23;33.58;;
66335;Laerm;53138;51.496;6.410;2023-03-01T00:22:48;31.89;30.30;33.45;;
66335;Laerm;53138;51.496;6.410;2023-03-01T00:22:58;36.78;31.18;46.39;;
66335;Laerm;53138;51.496;6.410;2023-03-01T00:23:09;39.98;32.49;45.86;;
66335;Laerm;53138;51.496;6.410;2023-03-01T00:23:19;39.48;31.77;48.80;;
66335;Laerm;53138;51.496;6.410;2023-03-01T00:23:30;41.90;32.58;49.09;;
66335;Laerm;53138;51.496;6.410;2023-03-01T00:23:40;32.25;30.42;33.89;;
66335;Laerm;53138;51.496;6.410;2023-03-01T00:23:51;32.68;30.69;39.47;;
66335;Laerm;53138;51.496;6.410;2023-03-01T00:24:01;32.88;30.51;38.03;;
66335;Laerm;53138;51.496;6.410;2023-03-01T00:24:12;33.85;31.06;44.49;;
66335;Laerm;53138;51.496;6.410;2023-03-01T00:24:22;33.77;31.41;36.71;;
66335;Laerm;53138;51.496;6.410;2023-03-01T00:24:32;33.28;31.30;38.45;;
66335;Laerm;53138;51.496;6.410;2023-03-01T00:24:43;35.64;31.57;47.79;;
66335;Laerm;53138;51.496;6.410;2023-03-01T00:24:53;38.72;34.11;42.19;;
66335;Laerm;53138;51.496;6.410;2023-03-01T00:25:03;33.14;30.65;35.58;;
66335;Laerm;53138;51.496;6.410;2023-03-01T00:25:13;32.06;30.14;38.25;;
66335;Laerm;53138;51.496;6.410;2023-03-01T00:25:24;31.52;30.21;33.02;;
66335;Laerm;53138;51.496;6.410;2023-03-01T00:25:40;31.54;30.33;32.82;;
66335;Laerm;53138;51.496;6.410;2023-03-01T00:25:50;31.52;30.05;32.96;;
66335;Laerm;53138;51.496;6.410;2023-03-01T00:26:01;31.65;30.28;32.78;;
66335;Laerm;53138;51.496;6.410;2023-03-01T00:26:12;33.94;30.36;52.96;;
66335;Laerm;53138;51.496;6.410;2023-03-01T00:26:23;36.81;30.56;57.33;;
66335;Laerm;53138;51.496;6.410;2023-03-01T00:26:33;32.47;30.71;34.62;;
66335;Laerm;53138;51.496;6.410;2023-03-01T00:26:44;32.33;30.94;36.43;;
66335;Laerm;53138;51.496;6.410;2023-03-01T00:26:54;34.06;30.81;43.31;;
66335;Laerm;53138;51.496;6.410;2023-03-01T00:27:05;33.24;30.83;37.76;;
66335;Laerm;53138;51.496;6.410;2023-03-01T00:27:15;34.88;32.31;40.49;;
66335;Laerm;53138;51.496;6.410;2023-03-01T00:27:26;37.53;33.20;42.44;;
66335;Laerm;53138;51.496;6.410;2023-03-01T00:27:36;37.06;33.44;43.57;;
66335;Laerm;53138;51.496;6.410;2023-03-01T00:27:46;37.10;32.86;44.62;;
66335;Laerm;53138;51.496;6.410;2023-03-01T00:27:57;33.25;30.77;36.36;;
66335;Laerm;53138;51.496;6.410;2023-03-01T00:28:07;32.59;30.92;34.87;;
66335;Laerm;53138;51.496;6.410;2023-03-01T00:28:18;32.01;30.52;34.39;;
66335;Laerm;53138;51.496;6.410;2023-03-01T00:28:28;31.89;30.38;33.62;;
66335;Laerm;53138;51.496;6.410;2023-03-01T00:28:38;31.63;30.11;33.24;;
66335;Laerm;53138;51.496;6.410;2023-03-01T00:28:49;31.65;30.19;33.00;;
66335;Laerm;53138;51.496;6.410;2023-03-01T00:28:59;32.35;29.99;48.46;;
66335;Laerm;53138;51.496;6.410;2023-03-01T00:29:09;31.43;30.30;32.81;;
66335;Laerm;53138;51.496;6.410;2023-03-01T00:29:20;31.49;29.73;33.10;;
66335;Laerm;53138;51.496;6.410;2023-03-01T00:29:30;31.47;30.01;32.68;;
66335;Laerm;53138;51.496;6.410;2023-03-01T00:29:40;31.42;30.15;32.87;;
66335;Laerm;53138;51.496;6.410;2023-03-01T00:29:50;31.41;30.00;32.80;;
66335;Laerm;53138;51.496;6.410;2023-03-01T00:30:02;31.35;29.81;32.83;;
66335;Laerm;53138;51.496;6.410;2023-03-01T00:30:12;31.46;30.33;32.95;;
66335;Laerm;53138;51.496;6.410;2023-03-01T00:30:22;31.54;30.01;33.22;;
66335;Laerm;53138;51.496;6.410;2023-03-01T00:30:33;32.62;30.18;39.58;;
66335;Laerm;53138;51.496;6.410;2023-03-01T00:30:43;31.62;30.18;37.97;;
66335;Laerm;53138;51.496;6.410;2023-03-01T00:30:53;31.93;30.19;33.88;;
66335;Laerm;53138;51.496;6.410;2023-03-01T00:31:07;32.19;30.48;34.37;;
66335;Laerm;53138;51.496;6.410;2023-03-01T00:31:19;32.23;30.48;33.70;;
66335;Laerm;53138;51.496;6.410;2023-03-01T00:31:30;32.58;30.50;34.43;;
66335;Laerm;53138;51.496;6.410;2023-03-01T00:31:41;32.76;30.69;34.73;;
66335;Laerm;53138;51.496;6.410;2023-03-01T00:31:51;32.64;31.18;34.30;;
66335;Laerm;53138;51.496;6.410;2023-03-01T00:32:01;32.76;30.72;34.15;;
66335;Laerm;53138;51.496;6.410;2023-03-01T00:32:11;32.84;30.74;35.01;;
66335;Laerm;53138;51.496;6.410;2023-03-01T00:32:22;33.21;31.24;36.49;;
66335;Laerm;53138;51.496;6.410;2023-03-01T00:32:32;33.01;31.18;35.39;;
66335;Laerm;53138;51.496;6.410;2023-03-01T00:32:42;33.14;30.48;35.10;;
66335;Laerm;53138;51.496;6.410;2023-03-01T00:32:52;32.88;31.44;34.65;;
66335;Laerm;53138;51.496;6.410;2023-03-01T00:33:02;33.07;31.54;35.06;;
66335;Laerm;53138;51.496;6.410;2023-03-01T00:33:13;33.29;31.67;35.36;;
66335;Laerm;53138;51.496;6.410;2023-03-01T00:33:23;33.23;30.76;35.42;;
66335;Laerm;53138;51.496;6.410;2023-03-01T00:33:33;32.24;30.33;34.65;;
66335;Laerm;53138;51.496;6.410;2023-03-01T00:33:44;32.61;30.41;36.31;;
66335;Laerm;53138;51.496;6.410;2023-03-01T00:33:55;33.02;30.59;35.54;;
66335;Laerm;53138;51.496;6.410;2023-03-01T00:34:08;34.23;31.70;38.24;;
66335;Laerm;53138;51.496;6.410;2023-03-01T00:34:19;32.43;30.40;35.93;;
66335;Laerm;53138;51.496;6.410;2023-03-01T00:34:29;31.67;30.16;32.96;;
66335;Laerm;53138;51.496;6.410;2023-03-01T00:34:39;32.46;30.41;44.20;;
66335;Laerm;53138;51.496;6.410;2023-03-01T00:34:49;32.76;31.01;34.91;;
66335;Laerm;53138;51.496;6.410;2023-03-01T00:35:04;39.22;32.76;43.83;;
66335;Laerm;53138;51.496;6.410;2023-03-01T00:35:15;34.78;31.36;41.05;;
66335;Laerm;53138;51.496;6.410;2023-03-01T00:35:25;32.20;30.73;33.54;;
66335;Laerm;53138;51.496;6.410;2023-03-01T00:35:36;31.90;30.50;33.19;;
66335;Laerm;53138;51.496;6.410;2023-03-01T00:35:46;31.71;29.92;33.19;;
66335;Laerm;53138;51.496;6.410;2023-03-01T00:35:57;31.65;30.00;33.16;;
66335;Laerm;53138;51.496;6.410;2023-03-01T00:36:08;31.70;30.42;33.69;;
66335;Laerm;53138;51.496;6.410;2023-03-01T00:36:18;31.69;30.14;33.23;;
66335;Laerm;53138;51.496;6.410;2023-03-01T00:36:30;31.73;30.60;33.22;;
66335;Laerm;53138;51.496;6.410;2023-03-01T00:36:41;32.02;30.33;33.79;;
66335;Laerm;53138;51.496;6.410;2023-03-01T00:36:51;31.86;30.49;33.19;;
66335;Laerm;53138;51.496;6.410;2023-03-01T00:37:01;31.82;30.20;33.49;;
66335;Laerm;53138;51.496;6.410;2023-03-01T00:37:15;32.09;30.71;33.65;;
66335;Laerm;53138;51.496;6.410;2023-03-01T00:37:25;32.00;30.67;35.27;;
66335;Laerm;53138;51.496;6.410;2023-03-01T00:37:35;31.82;30.02;34.05;;
66335;Laerm;53138;51.496;6.410;2023-03-01T00:37:45;31.77;30.21;33.33;;
66335;Laerm;53138;51.496;6.410;2023-03-01T00:37:56;31.72;30.35;33.35;;
66335;Laerm;53138;51.496;6.410;2023-03-01T00:38:07;31.68;30.27;33.13;;
66335;Laerm;53138;51.496;6.410;2023-03-01T00:38:18;32.24;29.78;38.92;;
66335;Laerm;53138;51.496;6.410;2023-03-01T00:38:28;31.78;30.26;37.11;;
66335;Laerm;53138;51.496;6.410;2023-03-01T00:38:39;31.92;30.39;35.85;;
66335;Laerm;53138;51.496;6.410;2023-03-01T00:38:49;31.60;30.03;34.72;;
66335;Laerm;53138;51.496;6.410;2023-03-01T00:39:00;31.56;30.12;32.79;;
66335;Laerm;53138;51.496;6.410;2023-03-01T00:39:11;31.61;30.32;33.36;;
66335;Laerm;53138;51.496;6.410;2023-03-01T00:39:22;31.79;30.02;38.77;;
66335;Laerm;53138;51.496;6.410;2023-03-01T00:39:32;31.61;30.15;32.84;;
66335;Laerm;53138;51.496;6.410;2023-03-01T00:39:43;31.57;30.33;33.17;;
66335;Laerm;53138;51.496;6.410;2023-03-01T00:39:53;31.54;29.91;32.58;;
66335;Laerm;53138;51.496;6.410;2023-03-01T00:40:03;31.69;30.25;33.53;;
66335;Laerm;53138;51.496;6.410;2023-03-01T00:40:16;31.83;30.10;35.74;;
66335;Laerm;53138;51.496;6.410;2023-03-01T00:40:26;31.66;30.35;33.30;;
66335;Laerm;53138;51.496;6.410;2023-03-01T00:40:37;31.72;30.29;33.16;;
66335;Laerm;53138;51.496;6.410;2023-03-01T00:40:47;31.74;30.35;33.15;;
66335;Laerm;53138;51.496;6.410;2023-03-01T00:41:02;31.74;30.33;36.23;;
66335;Laerm;53138;51.496;6.410;2023-03-01T00:41:13;31.76;30.11;38.12;;
66335;Laerm;53138;51.496;6.410;2023-03-01T00:41:24;31.78;30.06;34.61;;
66335;Laerm;53138;51.496;6.410;2023-03-01T00:41:36;31.65;30.05;33.44;;
66335;Laerm;53138;51.496;6.410;2023-03-01T00:41:46;31.75;30.37;33.05;;
66335;Laerm;53138;51.496;6.410;2023-03-01T00:41:56;32.05;30.62;33.53;;
66335;Laerm;53138;51.496;6.410;2023-03-01T00:42:07;31.72;30.23;34.89;;
66335;Laerm;53138;51.496;6.410;2023-03-01T00:42:17;31.46;29.68;35.23;;
66335;Laerm;53138;51.496;6.410;2023-03-01T00:42:27;31.63;30.44;33.25;;
66335;Laerm;53138;51.496;6.410;2023-03-01T00:42:37;31.50;30.10;32.66;;
66335;Laerm;53138;51.496;6.410;2023-03-01T00:42:48;31.71;30.29;33.77;;
66335;Laerm;53138;51.496;6.410;2023-03-01T00:42:58;32.29;30.31;39.65;;
66335;Laerm;53138;51.496;6.410;2023-03-01T00:43:08;31.76;30.06;37.88;;
66335;Laerm;53138;51.496;6.410;2023-03-01T00:43:18;31.86;30.04;36.20;;
66335;Laerm;53138;51.496;6.410;2023-03-01T00:43:28;31.58;30.33;33.30;;
66335;Laerm;53138;51.496;6.410;2023-03-01T00:43:39;31.59;30.06;33.67;;
66335;Laerm;53138;51.496;6.410;2023-03-01T00:43:49;31.76;30.36;37.55;;
66335;Laerm;53138;51.496;6.410;2023-03-01T00:44:00;31.47;30.23;33.15;;
66335;Laerm;53138;51.496;6.410;2023-03-01T00:44:10;31.47;30.25;33.29;;
66335;Laerm;53138;51.496;6.410;2023-03-01T00:44:20;31.53;30.22;34.46;;
66335;Laerm;53138;51.496;6.410;2023-03-01T00:44:30;34.60;30.17;50.49;;
66335;Laerm;53138;51.496;6.410;2023-03-01T00:44:41;31.90;29.98;39.18;;
66335;Laerm;53138;51.496;6.410;2023-03-01T00:44:51;31.71;30.20;38.67;;
66335;Laerm;53138;51.496;6.410;2023-03-01T00:45:01;31.62;30.35;34.80;;
66335;Laerm;53138;51.496;6.410;2023-03-01T00:45:11;31.51;30.20;34.04;;
66335;Laerm;53138;51.496;6.410;2023-03-01T00:45:23;31.72;30.57;33.17;;
66335;Laerm;53138;51.496;6.410;2023-03-01T00:45:33;31.67;30.22;32.96;;
66335;Laerm;53138;51.496;6.410;2023-03-01T00:45:44;31.83;30.13;34.57;;
66335;Laerm;53138;51.496;6.410;2023-03-01T00:45:54;32.03;30.22;34.90;;
66335;Laerm;53138;51.496;6.410;2023-03-01T00:46:08;33.08;30.69;45.22;;
66335;Laerm;53138;51.496;6.410;2023-03-01T00:46:20;32.56;30.60;43.29;;
66335;Laerm;53138;51.496;6.410;2023-03-01T00:46:31;33.16;31.02;44.41;;
66335;Laerm;53138;51.496;6.410;2023-03-01T00:46:41;32.61;30.99;38.17;;
66335;Laerm;53138;51.496;6.410;2023-03-01T00:46:51;33.28;31.25;37.02;;
66335;Laerm;53138;51.496;6.410;2023-03-01T00:47:01;35.31;31.11;48.02;;
66335;Laerm;53138;51.496;6.410;2023-03-01T00:47:11;33.75;31.54;37.91;;
66335;Laerm;53138;51.496;6.410;2023-03-01T00:47:22;31.84;30.35;33.40;;
66335;Laerm;53138;51.496;6.410;2023-03-01T00:47:32;31.72;30.18;33.68;;
66335;Laerm;53138;51.496;6.410;2023-03-01T00:47:42;32.46;30.45;35.29;;
66335;Laerm;53138;51.496;6.410;2023-03-01T00:47:53;40.04;33.71;45.47;;
66335;Laerm;53138;51.496;6.410;2023-03-01T00:48:03;34.48;30.83;38.04;;
66335;Laerm;53138;51.496;6.410;2023-03-01T00:48:15;31.57;30.06;33.50;;
66335;Laerm;53138;51.496;6.410;2023-03-01T00:48:25;31.53;30.01;33.77;;
66335;Laerm;53138;51.496;6.410;2023-03-01T00:48:35;31.45;29.95;35.25;;
66335;Laerm;53138;51.496;6.410;2023-03-01T00:48:45;32.11;29.92;36.74;;
66335;Laerm;53138;51.496;6.410;2023-03-01T00:48:56;31.97;29.99;38.04;;
66335;Laerm;53138;51.496;6.410;2023-03-01T00:49:06;32.30;30.21;37.84;;
66335;Laerm;53138;51.496;6.410;2023-03-01T00:49:16;31.54;30.17;34.66;;
66335;Laerm;53138;51.496;6.410;2023-03-01T00:49:26;31.93;30.21;38.78;;
66335;Laerm;53138;51.496;6.410;2023-03-01T00:49:37;31.53;30.13;35.17;;
66335;Laerm;53138;51.496;6.410;2023-03-01T00:49:47;31.72;30.32;35.00;;
66335;Laerm;53138;51.496;6.410;2023-03-01T00:49:58;32.35;30.32;41.33;;
66335;Laerm;53138;51.496;6.410;2023-03-01T00:50:08;33.16;30.50;39.62;;
66335;Laerm;53138;51.496;6.410;2023-03-01T00:50:19;33.17;31.01;38.65;;
66335;Laerm;53138;51.496;6.410;2023-03-01T00:50:29;32.56;29.93;38.74;;
66335;Laerm;53138;51.496;6.410;2023-03-01T00:50:39;31.67;29.68;33.39;;
66335;Laerm;53138;51.496;6.410;2023-03-01T00:50:50;32.35;30.47;36.63;;
66335;Laerm;53138;51.496;6.410;2023-03-01T00:51:10;32.33;30.54;36.10;;
66335;Laerm;53138;51.496;6.410;2023-03-01T00:51:21;34.06;30.70;51.08;;
66335;Laerm;53138;51.496;6.410;2023-03-01T00:51:32;32.33;30.42;37.23;;
66335;Laerm;53138;51.496;6.410;2023-03-01T00:51:42;31.52;30.25;34.18;;
66335;Laerm;53138;51.496;6.410;2023-03-01T00:51:53;31.42;30.22;32.52;;
66335;Laerm;53138;51.496;6.410;2023-03-01T00:52:03;31.49;29.81;32.58;;
66335;Laerm;53138;51.496;6.410;2023-03-01T00:52:13;31.41;30.01;32.36;;
66335;Laerm;53138;51.496;6.410;2023-03-01T00:52:23;31.56;30.26;36.02;;
66335;Laerm;53138;51.496;6.410;2023-03-01T00:52:34;31.57;30.31;33.91;;
66335;Laerm;53138;51.496;6.410;2023-03-01T00:52:44;31.50;30.26;32.87;;
66335;Laerm;53138;51.496;6.410;2023-03-01T00:52:55;31.55;30.11;33.00;;
66335;Laerm;53138;51.496;6.410;2023-03-01T00:53:05;31.74;30.25;34.68;;
66335;Laerm;53138;51.496;6.410;2023-03-01T00:53:15;31.51;30.20;33.67;;
66335;Laerm;53138;51.496;6.410;2023-03-01T00:53:25;31.56;30.07;33.86;;
66335;Laerm;53138;51.496;6.410;2023-03-01T00:53:36;31.37;30.11;32.52;;
66335;Laerm;53138;51.496;6.410;2023-03-01T00:53:46;31.50;30.12;35.14;;
66335;Laerm;53138;51.496;6.410;2023-03-01T00:53:58;31.53;30.01;32.79;;
66335;Laerm;53138;51.496;6.410;2023-03-01T00:54:09;31.52;29.77;33.51;;
66335;Laerm;53138;51.496;6.410;2023-03-01T00:54:19;31.47;30.19;32.90;;
66335;Laerm;53138;51.496;6.410;2023-03-01T00:54:29;32.69;29.65;40.22;;
66335;Laerm;53138;51.496;6.410;2023-03-01T00:54:39;32.45;30.46;38.63;;
66335;Laerm;53138;51.496;6.410;2023-03-01T00:54:51;32.37;30.28;40.23;;
66335;Laerm;53138;51.496;6.410;2023-03-01T00:55:02;32.48;30.37;39.66;;
66335;Laerm;53138;51.496;6.410;2023-03-01T00:55:12;32.44;30.11;38.82;;
66335;Laerm;53138;51.496;6.410;2023-03-01T00:55:23;32.24;30.37;39.22;;
66335;Laerm;53138;51.496;6.410;2023-03-01T00:55:33;31.78;30.40;36.75;;
66335;Laerm;53138;51.496;6.410;2023-03-01T00:55:43;31.99;30.54;35.75;;
66335;Laerm;53138;51.496;6.410;2023-03-01T00:55:53;31.94;30.48;34.68;;
66335;Laerm;53138;51.496;6.410;2023-03-01T00:56:04;31.58;30.41;32.82;;
66335;Laerm;53138;51.496;6.410;2023-03-01T00:56:15;31.86;30.23;33.46;;
66335;Laerm;53138;51.496;6.410;2023-03-01T00:56:25;31.94;30.06;35.59;;
66335;Laerm;53138;51.496;6.410;2023-03-01T00:56:35;32.03;30.57;33.35;;
66335;Laerm;53138;51.496;6.410;2023-03-01T00:56:46;32.11;30.68;33.44;;
66335;Laerm;53138;51.496;6.410;2023-03-01T00:56:56;31.84;30.41;33.45;;
66335;Laerm;53138;51.496;6.410;2023-03-01T00:57:06;31.98;30.35;33.49;;
66335;Laerm;53138;51.496;6.410;2023-03-01T00:57:16;31.63;30.22;32.82;;
66335;Laerm;53138;51.496;6.410;2023-03-01T00:57:26;31.67;30.17;33.61;;
66335;Laerm;53138;51.496;6.410;2023-03-01T00:57:37;31.89;30.45;35.48;;
66335;Laerm;53138;51.496;6.410;2023-03-01T00:57:47;31.81;30.10;33.23;;
66335;Laerm;53138;51.496;6.410;2023-03-01T00:57:57;31.97;30.55;33.59;;
66335;Laerm;53138;51.496;6.410;2023-03-01T00:58:07;31.87;30.55;34.00;;
66335;Laerm;53138;51.496;6.410;2023-03-01T00:58:18;31.62;30.28;32.84;;
66335;Laerm;53138;51.496;6.410;2023-03-01T00:58:28;31.99;30.81;33.48;;
66335;Laerm;53138;51.496;6.410;2023-03-01T00:58:38;32.15;30.62;33.92;;
66335;Laerm;53138;51.496;6.410;2023-03-01T00:58:49;32.90;30.97;34.95;;
66335;Laerm;53138;51.496;6.410;2023-03-01T00:58:59;38.51;32.93;44.23;;
66335;Laerm;53138;51.496;6.410;2023-03-01T00:59:09;43.47;35.45;48.66;;
66335;Laerm;53138;51.496;6.410;2023-03-01T00:59:20;35.59;32.63;38.95;;
66335;Laerm;53138;51.496;6.410;2023-03-01T00:59:30;33.74;31.94;35.53;;
66335;Laerm;53138;51.496;6.410;2023-03-01T00:59:40;33.60;31.80;36.05;;
66335;Laerm;53138;51.496;6.410;2023-03-01T00:59:50;33.50;31.91;35.36;;
66335;Laerm;53138;51.496;6.410;2023-03-01T01:00:02;33.05;30.85;35.05;;